createdAt,value
2017-05-02T00:00:13.093Z,1011.32
2017-05-02T00:01:22.998Z,1011.37
2017-05-02T00:02:32.606Z,1011.36
2017-05-02T00:03:42.840Z,1011.41
2017-05-02T00:04:52.442Z,1011.42
2017-05-02T00:06:02.655Z,1011.43
2017-05-02T00:07:12.560Z,1011.45
2017-05-02T00:08:22.183Z,1011.48
2017-05-02T00:09:32.099Z,1011.46
2017-05-02T00:10:42.009Z,1011.42
2017-05-02T00:11:51.758Z,1011.44
2017-05-02T00:13:01.675Z,1011.47
2017-05-02T00:14:11.922Z,1011.44
2017-05-02T00:15:21.836Z,1011.43
2017-05-02T00:16:31.753Z,1011.42
2017-05-02T00:17:42.266Z,1011.4
2017-05-02T00:18:52.493Z,1011.36
2017-05-02T00:20:02.406Z,1011.36
2017-05-02T00:21:12.007Z,1011.35
2017-05-02T00:22:21.921Z,1011.37
2017-05-02T00:23:31.937Z,1011.33
2017-05-02T00:24:42.159Z,1011.32
2017-05-02T00:25:52.077Z,1011.31
2017-05-02T00:27:01.382Z,1011.29
2017-05-02T00:28:11.300Z,1011.31
2017-05-02T00:29:20.900Z,1011.29
2017-05-02T00:30:30.192Z,1011.29
2017-05-02T00:31:39.787Z,1011.29
2017-05-02T00:32:49.687Z,1011.33
2017-05-02T00:33:59.301Z,1011.32
2017-05-02T00:35:09.669Z,1011.33
2017-05-02T00:36:19.571Z,1011.32
2017-05-02T00:37:28.872Z,1011.35
2017-05-02T00:38:38.781Z,1011.32
2017-05-02T00:39:48.698Z,1011.28
2017-05-02T00:40:58.937Z,1011.26
2017-05-02T00:42:08.580Z,1011.3
2017-05-02T00:43:17.886Z,1011.3
2017-05-02T00:44:28.104Z,1011.32
2017-05-02T00:45:38.692Z,1011.3
2017-05-02T00:46:48.956Z,1011.34
2017-05-02T00:47:58.872Z,1011.38
2017-05-02T00:49:09.079Z,1011.36
2017-05-02T00:50:18.989Z,1011.34
2017-05-02T00:51:29.213Z,1011.31
2017-05-02T00:52:39.229Z,1011.33
2017-05-02T00:53:49.514Z,1011.34
2017-05-02T00:54:59.422Z,1011.34
2017-05-02T00:56:09.622Z,1011.31
2017-05-02T00:57:19.220Z,1011.32
2017-05-02T00:58:29.581Z,1011.33
2017-05-02T00:59:39.493Z,1011.32
2017-05-02T01:00:49.709Z,1011.29
2017-05-02T01:01:59.621Z,1011.31
2017-05-02T01:03:09.830Z,1011.3
2017-05-02T01:04:20.348Z,1011.29
2017-05-02T01:05:30.253Z,1011.3
2017-05-02T01:06:40.470Z,1011.3
2017-05-02T01:07:50.066Z,1011.23
2017-05-02T01:08:59.973Z,1011.25
2017-05-02T01:10:10.037Z,1011.27
2017-05-02T01:11:19.987Z,1011.27
2017-05-02T01:12:29.586Z,1011.25
2017-05-02T01:13:39.802Z,1011.26
2017-05-02T01:14:50.064Z,1011.26
2017-05-02T01:16:00.343Z,1011.23
2017-05-02T01:17:10.570Z,1011.23
2017-05-02T01:18:20.485Z,1011.19
2017-05-02T01:19:30.406Z,1011.18
2017-05-02T01:20:40.320Z,1011.19
2017-05-02T01:21:49.859Z,1011.14
2017-05-02T01:22:59.760Z,1011.11
2017-05-02T01:24:09.671Z,1011.18
2017-05-02T01:25:19.894Z,1011.13
2017-05-02T01:26:30.102Z,1011.11
2017-05-02T01:27:40.147Z,1011.08
2017-05-02T01:28:49.445Z,1011.07
2017-05-02T01:29:59.050Z,1011.07
2017-05-02T01:31:08.966Z,1011.11
2017-05-02T01:32:18.864Z,1011.1
2017-05-02T01:33:28.791Z,1011.08
2017-05-02T01:34:38.714Z,1011.09
2017-05-02T01:35:48.318Z,1011.11
2017-05-02T01:36:58.267Z,1011.11
2017-05-02T01:38:07.871Z,1011.13
2017-05-02T01:39:18.085Z,1011.15
2017-05-02T01:40:28.309Z,1011.15
2017-05-02T01:41:38.205Z,1011.2
2017-05-02T01:42:48.419Z,1011.16
2017-05-02T01:43:58.643Z,1011.16
2017-05-02T01:45:08.185Z,1011.18
2017-05-02T01:46:17.789Z,1011.18
2017-05-02T01:47:27.690Z,1011.2
2017-05-02T01:48:37.297Z,1011.22
2017-05-02T01:49:47.210Z,1011.25
2017-05-02T01:50:57.394Z,1011.23
2017-05-02T01:52:07.003Z,1011.23
2017-05-02T01:53:16.597Z,1011.27
2017-05-02T01:54:26.215Z,1011.29
2017-05-02T01:55:36.427Z,1011.29
2017-05-02T01:56:46.491Z,1011.31
2017-05-02T01:57:56.486Z,1011.3
2017-05-02T01:59:06.687Z,1011.32
2017-05-02T02:00:16.594Z,1011.33
2017-05-02T02:01:26.505Z,1011.31
2017-05-02T02:02:36.699Z,1011.27
2017-05-02T02:03:46.912Z,1011.27
2017-05-02T02:04:56.556Z,1011.26
2017-05-02T02:06:06.452Z,1011.26
2017-05-02T02:07:16.375Z,1011.24
2017-05-02T02:08:26.289Z,1011.21
2017-05-02T02:09:36.199Z,1011.19
2017-05-02T02:10:46.122Z,1011.17
2017-05-02T02:11:56.327Z,1011.18
2017-05-02T02:13:06.232Z,1011.15
2017-05-02T02:14:15.887Z,1011.11
2017-05-02T02:15:26.101Z,1011.1
2017-05-02T02:16:35.996Z,1011.08
2017-05-02T02:17:45.939Z,1011.09
2017-05-02T02:18:55.547Z,1011.08
2017-05-02T02:20:04.937Z,1011.1
2017-05-02T02:21:14.528Z,1011.12
2017-05-02T02:22:24.742Z,1011.07
2017-05-02T02:23:34.642Z,1011.07
2017-05-02T02:24:44.550Z,1011.09
2017-05-02T02:25:55.164Z,1011.06
2017-05-02T02:27:05.384Z,1011.08
2017-05-02T02:28:14.982Z,1011.08
2017-05-02T02:29:24.898Z,1011.03
2017-05-02T02:30:34.805Z,1011.08
2017-05-02T02:31:45.309Z,1011.03
2017-05-02T02:32:55.214Z,1011.04
2017-05-02T02:34:05.426Z,1011.06
2017-05-02T02:35:15.029Z,1011.04
2017-05-02T02:36:25.246Z,1011.06
2017-05-02T02:37:35.408Z,1011.06
2017-05-02T02:38:45.312Z,1011.03
2017-05-02T02:39:55.536Z,1011.07
2017-05-02T02:41:04.524Z,1011.1
2017-05-02T02:42:14.429Z,1011.06
2017-05-02T02:43:24.585Z,1011.07
2017-05-02T02:44:34.809Z,1011.02
2017-05-02T02:45:44.407Z,1011.04
2017-05-02T02:46:54.364Z,1011.02
2017-05-02T02:48:04.263Z,1011.01
2017-05-02T02:49:13.714Z,1011.02
2017-05-02T02:50:23.609Z,1011.01
2017-05-02T02:51:33.526Z,1010.99
2017-05-02T02:52:43.438Z,1010.95
2017-05-02T02:53:53.350Z,1011.01
2017-05-02T02:55:03.725Z,1010.98
2017-05-02T02:56:13.319Z,1011.03
2017-05-02T02:57:23.223Z,1010.99
2017-05-02T02:58:33.443Z,1011.04
2017-05-02T02:59:43.042Z,1011.05
2017-05-02T03:00:53.607Z,1011.01
2017-05-02T03:02:03.540Z,1011.03
2017-05-02T03:03:12.830Z,1011
2017-05-02T03:04:21.829Z,1011.04
2017-05-02T03:05:31.741Z,1010.99
2017-05-02T03:06:42.319Z,1011.02
2017-05-02T03:07:52.214Z,1011.02
2017-05-02T03:09:02.423Z,1011.04
2017-05-02T03:10:12.022Z,1011.05
2017-05-02T03:11:22.239Z,1011.05
2017-05-02T03:12:31.940Z,1011.02
2017-05-02T03:13:41.836Z,1011.05
2017-05-02T03:14:51.737Z,1011.08
2017-05-02T03:16:01.646Z,1011.05
2017-05-02T03:17:11.554Z,1011.04
2017-05-02T03:18:21.747Z,1011.04
2017-05-02T03:19:31.655Z,1011.02
2017-05-02T03:20:41.865Z,1011
2017-05-02T03:21:51.767Z,1011.05
2017-05-02T03:23:01.970Z,1011
2017-05-02T03:24:12.534Z,1011.01
2017-05-02T03:25:22.445Z,1010.97
2017-05-02T03:26:32.357Z,1011.01
2017-05-02T03:27:42.572Z,1011
2017-05-02T03:28:52.789Z,1010.97
2017-05-02T03:30:02.857Z,1011.01
2017-05-02T03:31:12.151Z,1011.01
2017-05-02T03:32:22.050Z,1010.97
2017-05-02T03:33:31.663Z,1010.99
2017-05-02T03:34:41.892Z,1010.97
2017-05-02T03:35:52.049Z,1010.98
2017-05-02T03:37:01.653Z,1010.95
2017-05-02T03:38:11.864Z,1010.94
2017-05-02T03:39:21.766Z,1010.94
2017-05-02T03:40:31.983Z,1010.95
2017-05-02T03:41:41.978Z,1010.94
2017-05-02T03:42:51.576Z,1010.93
2017-05-02T03:44:01.791Z,1010.88
2017-05-02T03:45:11.383Z,1010.91
2017-05-02T03:46:21.284Z,1010.9
2017-05-02T03:47:31.034Z,1010.91
2017-05-02T03:48:40.942Z,1010.89
2017-05-02T03:49:51.163Z,1010.92
2017-05-02T03:51:01.382Z,1010.9
2017-05-02T03:52:11.293Z,1010.88
2017-05-02T03:53:21.448Z,1010.92
2017-05-02T03:54:31.361Z,1010.89
2017-05-02T03:55:41.568Z,1010.87
2017-05-02T03:56:51.460Z,1010.84
2017-05-02T03:58:01.377Z,1010.83
2017-05-02T03:59:11.440Z,1010.88
2017-05-02T04:00:21.341Z,1010.84
2017-05-02T04:01:31.539Z,1010.82
2017-05-02T04:02:41.744Z,1010.79
2017-05-02T04:03:51.344Z,1010.77
2017-05-02T04:05:01.738Z,1010.78
2017-05-02T04:06:11.987Z,1010.83
2017-05-02T04:07:21.894Z,1010.8
2017-05-02T04:08:31.799Z,1010.77
2017-05-02T04:09:41.709Z,1010.79
2017-05-02T04:10:51.763Z,1010.82
2017-05-02T04:12:01.675Z,1010.79
2017-05-02T04:13:11.311Z,1010.79
2017-05-02T04:14:21.215Z,1010.79
2017-05-02T04:15:31.117Z,1010.81
2017-05-02T04:16:41.518Z,1010.84
2017-05-02T04:17:51.423Z,1010.85
2017-05-02T04:19:01.634Z,1010.86
2017-05-02T04:20:11.861Z,1010.88
2017-05-02T04:21:22.076Z,1010.86
2017-05-02T04:22:32.289Z,1010.84
2017-05-02T04:23:42.508Z,1010.87
2017-05-02T04:24:52.406Z,1010.83
2017-05-02T04:26:02.613Z,1010.85
2017-05-02T04:27:12.207Z,1010.85
2017-05-02T04:28:21.653Z,1010.87
2017-05-02T04:29:30.944Z,1010.85
2017-05-02T04:30:40.902Z,1010.84
2017-05-02T04:31:50.188Z,1010.85
2017-05-02T04:33:00.388Z,1010.86
2017-05-02T04:34:10.403Z,1010.87
2017-05-02T04:35:20.623Z,1010.88
2017-05-02T04:36:30.564Z,1010.87
2017-05-02T04:37:40.484Z,1010.9
2017-05-02T04:38:50.703Z,1010.88
2017-05-02T04:40:00.471Z,1010.86
2017-05-02T04:41:10.683Z,1010.88
2017-05-02T04:42:20.314Z,1010.88
2017-05-02T04:43:30.541Z,1010.87
2017-05-02T04:44:40.782Z,1010.89
2017-05-02T04:45:50.746Z,1010.94
2017-05-02T04:47:00.337Z,1010.9
2017-05-02T04:48:10.543Z,1010.91
2017-05-02T04:49:20.462Z,1010.91
2017-05-02T04:50:30.377Z,1010.92
2017-05-02T04:51:40.853Z,1010.88
2017-05-02T04:52:51.084Z,1010.88
2017-05-02T04:54:01.310Z,1010.87
2017-05-02T04:55:11.223Z,1010.86
2017-05-02T04:56:21.138Z,1010.86
2017-05-02T04:57:31.755Z,1010.86
2017-05-02T04:58:41.665Z,1010.88
2017-05-02T04:59:51.892Z,1010.88
2017-05-02T05:01:01.500Z,1010.89
2017-05-02T05:02:11.723Z,1010.88
2017-05-02T05:03:22.641Z,1010.91
2017-05-02T05:04:32.542Z,1010.92
2017-05-02T05:05:42.762Z,1010.9
2017-05-02T05:06:52.371Z,1010.9
2017-05-02T05:08:02.270Z,1010.93
2017-05-02T05:09:12.815Z,1010.94
2017-05-02T05:10:22.730Z,1010.94
2017-05-02T05:11:32.633Z,1010.93
2017-05-02T05:12:42.848Z,1010.98
2017-05-02T05:13:53.068Z,1010.99
2017-05-02T05:15:03.422Z,1011.02
2017-05-02T05:16:13.007Z,1011
2017-05-02T05:17:22.920Z,1010.98
2017-05-02T05:18:32.823Z,1010.98
2017-05-02T05:19:43.032Z,1010.98
2017-05-02T05:20:52.778Z,1011
2017-05-02T05:22:03.024Z,1010.99
2017-05-02T05:23:13.225Z,1010.97
2017-05-02T05:24:23.130Z,1011.01
2017-05-02T05:25:33.349Z,1011
2017-05-02T05:26:43.855Z,1011.01
2017-05-02T05:27:53.145Z,1010.98
2017-05-02T05:29:03.360Z,1010.98
2017-05-02T05:30:13.591Z,1010.99
2017-05-02T05:31:23.184Z,1010.94
2017-05-02T05:32:33.341Z,1010.96
2017-05-02T05:33:44.671Z,1010.96
2017-05-02T05:34:54.579Z,1010.93
2017-05-02T05:36:04.780Z,1010.9
2017-05-02T05:37:14.372Z,1010.88
2017-05-02T05:38:24.619Z,1010.9
2017-05-02T05:39:34.834Z,1010.88
2017-05-02T05:40:44.740Z,1010.86
2017-05-02T05:41:54.058Z,1010.82
2017-05-02T05:43:04.285Z,1010.87
2017-05-02T05:44:14.196Z,1010.84
2017-05-02T05:45:24.102Z,1010.81
2017-05-02T05:46:34.321Z,1010.83
2017-05-02T05:47:44.528Z,1010.79
2017-05-02T05:48:54.730Z,1010.8
2017-05-02T05:50:04.813Z,1010.77
2017-05-02T05:51:14.104Z,1010.75
2017-05-02T05:52:24.302Z,1010.77
2017-05-02T05:53:34.228Z,1010.77
2017-05-02T05:54:44.130Z,1010.8
2017-05-02T05:55:54.034Z,1010.77
2017-05-02T05:57:03.637Z,1010.77
2017-05-02T05:58:13.243Z,1010.74
2017-05-02T05:59:22.846Z,1010.76
2017-05-02T06:00:32.445Z,1010.74
2017-05-02T06:01:42.646Z,1010.75
2017-05-02T06:02:52.544Z,1010.74
2017-05-02T06:04:02.167Z,1010.74
2017-05-02T06:05:12.376Z,1010.71
2017-05-02T06:06:22.285Z,1010.74
2017-05-02T06:07:32.659Z,1010.74
2017-05-02T06:08:42.580Z,1010.76
2017-05-02T06:09:52.793Z,1010.77
2017-05-02T06:11:02.703Z,1010.75
2017-05-02T06:12:12.294Z,1010.74
2017-05-02T06:13:22.047Z,1010.73
2017-05-02T06:14:32.283Z,1010.72
2017-05-02T06:15:42.497Z,1010.71
2017-05-02T06:16:52.402Z,1010.76
2017-05-02T06:18:01.998Z,1010.77
2017-05-02T06:19:12.755Z,1010.8
2017-05-02T06:20:22.378Z,1010.83
2017-05-02T06:21:32.299Z,1010.81
2017-05-02T06:22:42.507Z,1010.82
2017-05-02T06:23:52.100Z,1010.8
2017-05-02T06:25:02.263Z,1010.81
2017-05-02T06:26:12.470Z,1010.8
2017-05-02T06:27:21.781Z,1010.81
2017-05-02T06:28:31.999Z,1010.77
2017-05-02T06:29:41.905Z,1010.78
2017-05-02T06:30:51.967Z,1010.76
2017-05-02T06:32:01.563Z,1010.81
2017-05-02T06:33:10.868Z,1010.8
2017-05-02T06:34:19.863Z,1010.79
2017-05-02T06:35:30.087Z,1010.79
2017-05-02T06:36:40.456Z,1010.8
2017-05-02T06:37:50.373Z,1010.81
2017-05-02T06:39:00.273Z,1010.83
2017-05-02T06:40:10.541Z,1010.81
2017-05-02T06:41:20.753Z,1010.83
2017-05-02T06:42:30.612Z,1010.85
2017-05-02T06:43:40.234Z,1010.85
2017-05-02T06:44:50.452Z,1010.8
2017-05-02T06:46:00.061Z,1010.81
2017-05-02T06:47:09.657Z,1010.85
2017-05-02T06:48:19.561Z,1010.83
2017-05-02T06:49:29.477Z,1010.88
2017-05-02T06:50:39.691Z,1010.86
2017-05-02T06:51:49.592Z,1010.83
2017-05-02T06:52:59.813Z,1010.87
2017-05-02T06:54:09.975Z,1010.88
2017-05-02T06:55:19.270Z,1010.84
2017-05-02T06:56:29.497Z,1010.88
2017-05-02T06:57:39.760Z,1010.88
2017-05-02T06:58:49.053Z,1010.83
2017-05-02T06:59:59.065Z,1010.88
2017-05-02T07:01:08.993Z,1010.82
2017-05-02T07:02:19.210Z,1010.86
2017-05-02T07:03:28.505Z,1010.85
2017-05-02T07:04:38.425Z,1010.84
2017-05-02T07:05:48.272Z,1010.79
2017-05-02T07:06:57.874Z,1010.82
2017-05-02T07:08:07.782Z,1010.84
2017-05-02T07:09:17.684Z,1010.84
2017-05-02T07:10:27.593Z,1010.85
2017-05-02T07:11:37.770Z,1010.83
2017-05-02T07:12:47.669Z,1010.84
2017-05-02T07:13:57.582Z,1010.81
2017-05-02T07:15:07.182Z,1010.84
2017-05-02T07:16:16.471Z,1010.82
2017-05-02T07:17:25.795Z,1010.82
2017-05-02T07:18:35.088Z,1010.84
2017-05-02T07:19:45.000Z,1010.88
2017-05-02T07:20:54.312Z,1010.86
2017-05-02T07:22:04.224Z,1010.89
2017-05-02T07:23:14.604Z,1010.89
2017-05-02T07:24:24.212Z,1010.88
2017-05-02T07:25:34.431Z,1010.89
2017-05-02T07:26:44.640Z,1010.9
2017-05-02T07:27:54.248Z,1010.87
2017-05-02T07:29:04.103Z,1010.88
2017-05-02T07:30:14.032Z,1010.88
2017-05-02T07:31:24.239Z,1010.86
2017-05-02T07:32:33.547Z,1010.91
2017-05-02T07:33:43.457Z,1010.86
2017-05-02T07:34:54.000Z,1010.84
2017-05-02T07:36:03.685Z,1010.86
2017-05-02T07:37:13.590Z,1010.9
2017-05-02T07:38:22.897Z,1010.87
2017-05-02T07:39:33.128Z,1010.91
2017-05-02T07:40:43.645Z,1010.9
2017-05-02T07:41:53.563Z,1010.92
2017-05-02T07:43:03.163Z,1010.87
2017-05-02T07:44:12.152Z,1010.91
2017-05-02T07:45:22.084Z,1010.87
2017-05-02T07:46:31.858Z,1010.88
2017-05-02T07:47:41.766Z,1010.91
2017-05-02T07:48:52.002Z,1010.88
2017-05-02T07:50:01.633Z,1010.87
2017-05-02T07:51:11.851Z,1010.88
2017-05-02T07:52:22.189Z,1010.9
2017-05-02T07:53:31.797Z,1010.88
2017-05-02T07:54:41.409Z,1010.89
2017-05-02T07:55:51.634Z,1010.85
2017-05-02T07:57:01.545Z,1010.89
2017-05-02T07:58:11.078Z,1010.9
2017-05-02T07:59:21.001Z,1010.89
2017-05-02T08:00:29.987Z,1010.9
2017-05-02T08:01:39.315Z,1010.93
2017-05-02T08:02:49.269Z,1010.94
2017-05-02T08:03:59.485Z,1010.89
2017-05-02T08:05:09.086Z,1010.91
2017-05-02T08:06:18.695Z,1010.93
2017-05-02T08:07:28.303Z,1010.9
2017-05-02T08:08:38.231Z,1010.91
2017-05-02T08:09:48.297Z,1010.94
2017-05-02T08:10:58.203Z,1010.89
2017-05-02T08:12:07.496Z,1010.96
2017-05-02T08:13:17.385Z,1010.9
2017-05-02T08:14:26.983Z,1010.89
2017-05-02T08:15:37.488Z,1010.9
2017-05-02T08:16:47.444Z,1010.87
2017-05-02T08:17:57.380Z,1010.89
2017-05-02T08:19:07.294Z,1010.96
2017-05-02T08:20:17.516Z,1010.91
2017-05-02T08:21:27.816Z,1010.91
2017-05-02T08:22:37.720Z,1010.96
2017-05-02T08:23:47.932Z,1010.92
2017-05-02T08:24:57.836Z,1010.95
2017-05-02T08:26:07.778Z,1010.96
2017-05-02T08:27:18.398Z,1010.94
2017-05-02T08:28:27.395Z,1010.94
2017-05-02T08:29:36.991Z,1010.93
2017-05-02T08:30:46.912Z,1010.93
2017-05-02T08:31:56.820Z,1010.96
2017-05-02T08:33:06.981Z,1010.93
2017-05-02T08:34:16.891Z,1010.96
2017-05-02T08:35:26.199Z,1010.96
2017-05-02T08:36:36.413Z,1010.99
2017-05-02T08:37:46.020Z,1010.96
2017-05-02T08:38:56.494Z,1010.96
2017-05-02T08:40:06.704Z,1010.96
2017-05-02T08:41:16.639Z,1011
2017-05-02T08:42:25.636Z,1010.98
2017-05-02T08:43:35.548Z,1010.93
2017-05-02T08:44:45.257Z,1010.92
2017-05-02T08:45:55.170Z,1010.94
2017-05-02T08:47:04.783Z,1010.91
2017-05-02T08:48:14.691Z,1010.9
2017-05-02T08:49:24.594Z,1010.91
2017-05-02T08:50:34.816Z,1010.87
2017-05-02T08:51:44.728Z,1010.9
2017-05-02T08:52:54.635Z,1010.88
2017-05-02T08:54:04.252Z,1010.89
2017-05-02T08:55:14.166Z,1010.86
2017-05-02T08:56:24.380Z,1010.9
2017-05-02T08:57:34.576Z,1010.86
2017-05-02T08:58:44.790Z,1010.87
2017-05-02T08:59:54.394Z,1010.89
2017-05-02T09:01:04.635Z,1010.88
2017-05-02T09:02:14.945Z,1010.87
2017-05-02T09:03:24.862Z,1010.86
2017-05-02T09:04:34.173Z,1010.85
2017-05-02T09:05:44.093Z,1010.85
2017-05-02T09:06:54.011Z,1010.88
2017-05-02T09:08:03.461Z,1010.87
2017-05-02T09:09:13.059Z,1010.91
2017-05-02T09:10:22.967Z,1010.87
2017-05-02T09:11:32.562Z,1010.89
2017-05-02T09:12:42.772Z,1010.87
2017-05-02T09:13:53.691Z,1010.88
2017-05-02T09:15:03.918Z,1010.88
2017-05-02T09:16:14.125Z,1010.9
2017-05-02T09:17:23.764Z,1010.9
2017-05-02T09:18:34.007Z,1010.88
2017-05-02T09:19:44.477Z,1010.92
2017-05-02T09:20:54.390Z,1010.91
2017-05-02T09:22:04.302Z,1010.94
2017-05-02T09:23:13.624Z,1010.9
2017-05-02T09:24:23.535Z,1010.92
2017-05-02T09:25:33.699Z,1010.91
2017-05-02T09:26:43.904Z,1010.9
2017-05-02T09:27:54.160Z,1010.92
2017-05-02T09:29:04.380Z,1010.94
2017-05-02T09:30:14.598Z,1010.92
2017-05-02T09:31:24.815Z,1010.87
2017-05-02T09:32:34.413Z,1010.88
2017-05-02T09:33:44.362Z,1010.88
2017-05-02T09:34:54.289Z,1010.9
2017-05-02T09:36:04.207Z,1010.92
2017-05-02T09:37:14.734Z,1010.89
2017-05-02T09:38:24.349Z,1010.9
2017-05-02T09:39:34.285Z,1010.92
2017-05-02T09:40:44.222Z,1010.92
2017-05-02T09:41:54.124Z,1010.92
2017-05-02T09:43:04.130Z,1010.91
2017-05-02T09:44:13.736Z,1010.88
2017-05-02T09:45:23.660Z,1010.9
2017-05-02T09:46:33.883Z,1010.86
2017-05-02T09:47:43.806Z,1010.85
2017-05-02T09:48:53.827Z,1010.86
2017-05-02T09:50:03.737Z,1010.87
2017-05-02T09:51:13.344Z,1010.83
2017-05-02T09:52:23.283Z,1010.81
2017-05-02T09:53:33.195Z,1010.84
2017-05-02T09:54:43.725Z,1010.85
2017-05-02T09:55:53.973Z,1010.85
2017-05-02T09:57:03.585Z,1010.81
2017-05-02T09:58:13.208Z,1010.81
2017-05-02T09:59:23.113Z,1010.77
2017-05-02T10:00:33.120Z,1010.76
2017-05-02T10:01:43.035Z,1010.77
2017-05-02T10:02:52.627Z,1010.8
2017-05-02T10:04:02.240Z,1010.76
2017-05-02T10:05:12.455Z,1010.78
2017-05-02T10:06:22.675Z,1010.81
2017-05-02T10:07:32.578Z,1010.82
2017-05-02T10:08:42.505Z,1010.78
2017-05-02T10:09:52.727Z,1010.77
2017-05-02T10:11:02.350Z,1010.78
2017-05-02T10:12:12.095Z,1010.76
2017-05-02T10:13:22.317Z,1010.77
2017-05-02T10:14:32.534Z,1010.8
2017-05-02T10:15:42.752Z,1010.78
2017-05-02T10:16:52.650Z,1010.78
2017-05-02T10:18:03.468Z,1010.72
2017-05-02T10:19:12.481Z,1010.77
2017-05-02T10:20:22.132Z,1010.78
2017-05-02T10:21:32.094Z,1010.77
2017-05-02T10:22:41.406Z,1010.73
2017-05-02T10:23:51.658Z,1010.75
2017-05-02T10:25:01.870Z,1010.72
2017-05-02T10:26:11.172Z,1010.76
2017-05-02T10:27:21.113Z,1010.71
2017-05-02T10:28:31.014Z,1010.72
2017-05-02T10:29:41.114Z,1010.72
2017-05-02T10:30:50.716Z,1010.72
2017-05-02T10:32:00.322Z,1010.72
2017-05-02T10:33:10.237Z,1010.69
2017-05-02T10:34:20.147Z,1010.68
2017-05-02T10:35:30.611Z,1010.65
2017-05-02T10:36:40.521Z,1010.66
2017-05-02T10:37:50.732Z,1010.65
2017-05-02T10:39:00.658Z,1010.66
2017-05-02T10:40:10.905Z,1010.65
2017-05-02T10:41:20.904Z,1010.64
2017-05-02T10:42:30.511Z,1010.6
2017-05-02T10:43:40.430Z,1010.64
2017-05-02T10:44:50.651Z,1010.64
2017-05-02T10:46:00.568Z,1010.67
2017-05-02T10:47:10.640Z,1010.66
2017-05-02T10:48:19.947Z,1010.66
2017-05-02T10:49:30.154Z,1010.62
2017-05-02T10:50:39.743Z,1010.65
2017-05-02T10:51:49.349Z,1010.62
2017-05-02T10:52:59.873Z,1010.65
2017-05-02T10:54:10.092Z,1010.6
2017-05-02T10:55:20.316Z,1010.64
2017-05-02T10:56:30.228Z,1010.6
2017-05-02T10:57:40.136Z,1010.59
2017-05-02T10:58:49.885Z,1010.58
2017-05-02T10:59:59.812Z,1010.59
2017-05-02T11:01:09.428Z,1010.56
2017-05-02T11:02:19.361Z,1010.51
2017-05-02T11:03:29.575Z,1010.52
2017-05-02T11:04:39.427Z,1010.5
2017-05-02T11:05:49.646Z,1010.55
2017-05-02T11:06:59.271Z,1010.53
2017-05-02T11:08:09.491Z,1010.55
2017-05-02T11:09:19.402Z,1010.51
2017-05-02T11:10:29.865Z,1010.51
2017-05-02T11:11:39.798Z,1010.51
2017-05-02T11:12:50.005Z,1010.53
2017-05-02T11:13:59.601Z,1010.51
2017-05-02T11:15:09.822Z,1010.48
2017-05-02T11:16:20.048Z,1010.5
2017-05-02T11:17:30.271Z,1010.49
2017-05-02T11:18:40.186Z,1010.49
2017-05-02T11:19:49.791Z,1010.46
2017-05-02T11:21:00.009Z,1010.45
2017-05-02T11:22:10.324Z,1010.43
2017-05-02T11:23:19.625Z,1010.46
2017-05-02T11:24:29.864Z,1010.47
2017-05-02T11:25:39.479Z,1010.44
2017-05-02T11:26:49.120Z,1010.45
2017-05-02T11:27:59.914Z,1010.47
2017-05-02T11:29:09.548Z,1010.43
2017-05-02T11:30:19.757Z,1010.5
2017-05-02T11:31:29.664Z,1010.45
2017-05-02T11:32:39.575Z,1010.49
2017-05-02T11:33:49.590Z,1010.48
2017-05-02T11:34:59.501Z,1010.5
2017-05-02T11:36:09.712Z,1010.48
2017-05-02T11:37:19.004Z,1010.48
2017-05-02T11:38:28.923Z,1010.51
2017-05-02T11:39:38.846Z,1010.45
2017-05-02T11:40:48.468Z,1010.49
2017-05-02T11:41:58.702Z,1010.48
2017-05-02T11:43:08.611Z,1010.47
2017-05-02T11:44:18.838Z,1010.5
2017-05-02T11:45:29.161Z,1010.45
2017-05-02T11:46:39.078Z,1010.49
2017-05-02T11:47:49.319Z,1010.47
2017-05-02T11:48:58.934Z,1010.49
2017-05-02T11:50:09.157Z,1010.5
2017-05-02T11:51:19.061Z,1010.47
2017-05-02T11:52:28.959Z,1010.46
2017-05-02T11:53:39.180Z,1010.46
2017-05-02T11:54:49.393Z,1010.42
2017-05-02T11:55:58.384Z,1010.4
2017-05-02T11:57:08.394Z,1010.37
2017-05-02T11:58:18.310Z,1010.38
2017-05-02T11:59:27.616Z,1010.35
2017-05-02T12:00:37.225Z,1010.4
2017-05-02T12:01:47.150Z,1010.39
2017-05-02T12:02:57.664Z,1010.35
2017-05-02T12:04:07.900Z,1010.38
2017-05-02T12:05:17.806Z,1010.38
2017-05-02T12:06:27.119Z,1010.38
2017-05-02T12:07:37.036Z,1010.38
2017-05-02T12:08:46.742Z,1010.39
2017-05-02T12:09:56.339Z,1010.34
2017-05-02T12:11:06.008Z,1010.35
2017-05-02T12:12:15.003Z,1010.34
2017-05-02T12:13:24.914Z,1010.32
2017-05-02T12:14:35.297Z,1010.41
2017-05-02T12:15:45.226Z,1010.35
2017-05-02T12:16:55.148Z,1010.33
2017-05-02T12:18:05.058Z,1010.38
2017-05-02T12:19:14.357Z,1010.41
2017-05-02T12:20:23.773Z,1010.37
2017-05-02T12:21:33.693Z,1010.38
2017-05-02T12:22:42.975Z,1010.38
2017-05-02T12:23:52.885Z,1010.35
2017-05-02T12:25:03.099Z,1010.39
2017-05-02T12:26:12.953Z,1010.39
2017-05-02T12:27:22.859Z,1010.4
2017-05-02T12:28:32.167Z,1010.42
2017-05-02T12:29:42.394Z,1010.42
2017-05-02T12:30:51.990Z,1010.48
2017-05-02T12:32:02.451Z,1010.44
2017-05-02T12:33:12.671Z,1010.45
2017-05-02T12:34:22.896Z,1010.43
2017-05-02T12:35:32.819Z,1010.47
2017-05-02T12:36:42.413Z,1010.44
2017-05-02T12:37:52.782Z,1010.43
2017-05-02T12:39:02.400Z,1010.45
2017-05-02T12:40:11.999Z,1010.44
2017-05-02T12:41:22.210Z,1010.42
2017-05-02T12:42:32.122Z,1010.44
2017-05-02T12:43:42.286Z,1010.48
2017-05-02T12:44:52.495Z,1010.48
2017-05-02T12:46:02.104Z,1010.46
2017-05-02T12:47:11.696Z,1010.46
2017-05-02T12:48:21.918Z,1010.5
2017-05-02T12:49:31.980Z,1010.49
2017-05-02T12:50:42.198Z,1010.48
2017-05-02T12:51:52.116Z,1010.5
2017-05-02T12:53:02.051Z,1010.47
2017-05-02T12:54:12.264Z,1010.5
